createdAt,value
2019-01-23T00:00:05.336Z,36.23
2019-01-23T00:01:05.416Z,36.14
2019-01-23T00:02:06.001Z,36.21
2019-01-23T00:03:05.712Z,36.24
2019-01-23T00:04:05.701Z,36.19
2019-01-23T00:05:05.730Z,36.19
2019-01-23T00:06:05.639Z,36.21
2019-01-23T00:07:05.426Z,36.19
2019-01-23T00:08:05.202Z,36.22
2019-01-23T00:09:05.653Z,36.24
2019-01-23T00:10:05.222Z,36.21
2019-01-23T00:11:06.095Z,36.16
2019-01-23T00:12:05.887Z,36.2
2019-01-23T00:13:05.685Z,36.22
2019-01-23T00:14:05.820Z,36.19
2019-01-23T00:15:05.589Z,36.21
2019-01-23T00:16:05.716Z,36.23
2019-01-23T00:17:05.552Z,36.23
2019-01-23T00:18:05.841Z,36.23
2019-01-23T00:19:05.328Z,36.25
2019-01-23T00:20:06.292Z,36.19
2019-01-23T00:21:05.702Z,36.2
2019-01-23T00:22:05.626Z,36.18
2019-01-23T00:23:05.859Z,36.2
2019-01-23T00:24:05.386Z,36.2
2019-01-23T00:25:05.462Z,36.18
2019-01-23T00:26:05.269Z,36.15
2019-01-23T00:27:07.254Z,36.18
2019-01-23T00:28:06.049Z,36.18
2019-01-23T00:29:05.494Z,36.24
2019-01-23T00:30:08.287Z,36.25
2019-01-23T00:31:05.732Z,36.28
2019-01-23T00:32:05.701Z,36.22
2019-01-23T00:33:05.315Z,36.34
2019-01-23T00:34:05.303Z,36.24
2019-01-23T00:35:05.851Z,36.25
2019-01-23T00:36:05.912Z,36.26
2019-01-23T00:37:05.634Z,36.22
2019-01-23T00:38:05.947Z,36.21
2019-01-23T00:39:05.327Z,36.21
2019-01-23T00:40:05.552Z,36.21
2019-01-23T00:41:05.861Z,36.21
2019-01-23T00:42:05.324Z,36.23
2019-01-23T00:43:05.238Z,36.28
2019-01-23T00:44:05.810Z,36.29
2019-01-23T00:45:05.626Z,36.32
2019-01-23T00:46:05.651Z,36.27
2019-01-23T00:47:05.846Z,36.19
2019-01-23T00:48:05.602Z,36.25
2019-01-23T00:49:05.354Z,36.29
2019-01-23T00:50:05.657Z,36.25
2019-01-23T00:51:05.362Z,36.3
2019-01-23T00:52:05.452Z,36.26
2019-01-23T00:53:05.298Z,36.2
2019-01-23T00:54:05.610Z,36.24
2019-01-23T00:55:05.555Z,36.25
2019-01-23T00:56:05.786Z,36.29
2019-01-23T00:57:07.828Z,36.29
2019-01-23T00:58:05.517Z,36.28
2019-01-23T00:59:05.449Z,36.25
2019-01-23T01:00:05.286Z,36.25
2019-01-23T01:01:05.455Z,36.3
2019-01-23T01:02:05.459Z,36.29
2019-01-23T01:03:05.658Z,36.3
2019-01-23T01:04:05.348Z,36.28
2019-01-23T01:05:05.919Z,36.29
2019-01-23T01:06:05.321Z,36.29
2019-01-23T01:07:05.700Z,36.3
2019-01-23T01:08:05.782Z,36.23
2019-01-23T01:09:05.261Z,36.21
2019-01-23T01:10:05.665Z,36.3
2019-01-23T01:11:05.678Z,36.28
2019-01-23T01:12:05.651Z,36.23
2019-01-23T01:13:05.564Z,36.29
2019-01-23T01:14:05.891Z,36.27
2019-01-23T01:15:05.333Z,36.25
2019-01-23T01:16:05.460Z,36.28
2019-01-23T01:17:06.228Z,36.36
2019-01-23T01:18:05.361Z,36.32
2019-01-23T01:19:05.744Z,36.26
2019-01-23T01:20:05.457Z,36.24
2019-01-23T01:21:05.643Z,36.27
2019-01-23T01:22:07.286Z,36.26
2019-01-23T01:23:05.278Z,36.28
2019-01-23T01:24:05.664Z,36.26
2019-01-23T01:25:06.079Z,36.3
2019-01-23T01:26:05.799Z,36.32
2019-01-23T01:27:05.683Z,36.28
2019-01-23T01:28:05.719Z,36.26
2019-01-23T01:29:05.812Z,36.31
2019-01-23T01:30:05.691Z,36.28
2019-01-23T01:31:05.263Z,36.3
2019-01-23T01:32:05.751Z,36.29
2019-01-23T01:33:05.712Z,36.28
2019-01-23T01:34:05.341Z,36.29
2019-01-23T01:35:05.545Z,36.25
2019-01-23T01:36:05.307Z,36.26
2019-01-23T01:37:05.371Z,36.26
2019-01-23T01:38:05.137Z,36.21
2019-01-23T01:39:05.790Z,36.26
2019-01-23T01:40:05.669Z,36.25
2019-01-23T01:41:05.883Z,36.31
2019-01-23T01:42:05.674Z,36.28
2019-01-23T01:43:05.823Z,36.25
2019-01-23T01:44:05.610Z,36.3
2019-01-23T01:45:05.722Z,36.29
2019-01-23T01:46:05.563Z,36.25
2019-01-23T01:47:05.355Z,36.27
2019-01-23T01:48:05.757Z,36.27
2019-01-23T01:49:05.658Z,36.25
2019-01-23T01:50:05.345Z,36.22
2019-01-23T01:51:05.661Z,36.26
2019-01-23T01:52:05.653Z,36.31
2019-01-23T01:53:05.687Z,36.27
2019-01-23T01:54:05.342Z,36.27
2019-01-23T01:55:05.629Z,36.29
2019-01-23T01:56:05.460Z,36.24
2019-01-23T01:57:05.855Z,36.27
2019-01-23T01:58:10.388Z,36.27
2019-01-23T01:59:05.745Z,36.23
2019-01-23T02:00:05.810Z,36.19
2019-01-23T02:01:05.339Z,36.34
2019-01-23T02:02:05.731Z,36.3
2019-01-23T02:03:05.686Z,36.34
2019-01-23T02:04:05.782Z,36.33
2019-01-23T02:05:05.690Z,36.29
2019-01-23T02:06:05.625Z,36.38
2019-01-23T02:07:05.802Z,36.28
2019-01-23T02:08:06.272Z,36.28
2019-01-23T02:09:06.072Z,36.3
2019-01-23T02:10:06.930Z,36.28
2019-01-23T02:11:05.450Z,36.27
2019-01-23T02:12:05.939Z,36.3
2019-01-23T02:13:06.971Z,36.33
2019-01-23T02:14:05.751Z,36.25
2019-01-23T02:15:05.557Z,36.35
2019-01-23T02:16:06.921Z,36.35
2019-01-23T02:17:06.197Z,36.33
2019-01-23T02:18:05.936Z,36.28
2019-01-23T02:19:06.933Z,36.34
2019-01-23T02:20:07.292Z,36.38
2019-01-23T02:21:05.499Z,36.39
2019-01-23T02:22:05.737Z,36.35
2019-01-23T02:23:05.633Z,36.34
2019-01-23T02:24:05.681Z,36.33
2019-01-23T02:25:05.305Z,36.28
2019-01-23T02:26:05.724Z,36.33
2019-01-23T02:27:07.435Z,36.35
2019-01-23T02:28:05.384Z,36.29
2019-01-23T02:29:09.805Z,36.34
2019-01-23T02:30:05.587Z,36.38
2019-01-23T02:31:05.543Z,36.36
2019-01-23T02:32:05.880Z,36.26
2019-01-23T02:33:05.788Z,36.29
2019-01-23T02:34:05.330Z,36.29
2019-01-23T02:35:05.361Z,36.36
2019-01-23T02:36:05.687Z,36.36
2019-01-23T02:37:05.713Z,36.33
2019-01-23T02:38:05.419Z,36.27
2019-01-23T02:39:06.369Z,36.32
2019-01-23T02:40:05.295Z,36.28
2019-01-23T02:41:05.447Z,36.22
2019-01-23T02:42:06.180Z,36.32
2019-01-23T02:43:05.645Z,36.34
2019-01-23T02:44:05.966Z,36.32
2019-01-23T02:45:05.215Z,36.28
2019-01-23T02:46:05.628Z,36.27
2019-01-23T02:47:05.786Z,36.39
2019-01-23T02:48:05.994Z,36.34
2019-01-23T02:49:05.699Z,36.29
2019-01-23T02:50:05.711Z,36.35
2019-01-23T02:51:05.711Z,36.35
2019-01-23T02:52:05.339Z,36.33
2019-01-23T02:53:05.618Z,36.34
2019-01-23T02:54:05.563Z,36.37
2019-01-23T02:55:05.723Z,36.3
2019-01-23T02:56:05.539Z,36.32
2019-01-23T02:57:05.880Z,36.36
2019-01-23T02:58:05.393Z,36.27
2019-01-23T02:59:05.435Z,36.33
2019-01-23T03:00:05.803Z,36.37
2019-01-23T03:01:05.675Z,36.35
2019-01-23T03:02:06.904Z,36.39
2019-01-23T03:03:05.900Z,36.4
2019-01-23T03:04:05.654Z,36.34
2019-01-23T03:05:05.688Z,36.37
2019-01-23T03:06:05.656Z,36.44
2019-01-23T03:07:07.246Z,36.28
2019-01-23T03:08:05.939Z,36.38
2019-01-23T03:09:05.765Z,36.31
2019-01-23T03:10:05.654Z,36.32
2019-01-23T03:11:07.312Z,36.36
2019-01-23T03:12:06.366Z,36.38
2019-01-23T03:13:05.659Z,36.35
2019-01-23T03:14:05.758Z,36.37
2019-01-23T03:15:05.579Z,36.34
2019-01-23T03:16:05.748Z,36.36
2019-01-23T03:17:05.810Z,36.4
2019-01-23T03:18:05.547Z,36.4
2019-01-23T03:19:05.709Z,36.37
2019-01-23T03:20:05.716Z,36.34
2019-01-23T03:21:05.238Z,36.41
2019-01-23T03:22:05.655Z,36.43
2019-01-23T03:23:05.486Z,36.44
2019-01-23T03:24:05.311Z,36.38
2019-01-23T03:25:05.623Z,36.39
2019-01-23T03:26:05.362Z,36.34
2019-01-23T03:27:05.313Z,36.31
2019-01-23T03:28:05.335Z,36.37
2019-01-23T03:29:05.401Z,36.3
2019-01-23T03:30:05.910Z,36.35
2019-01-23T03:31:05.698Z,36.41
2019-01-23T03:32:05.460Z,36.36
2019-01-23T03:33:05.561Z,36.4
2019-01-23T03:34:05.297Z,36.37
2019-01-23T03:35:06.059Z,36.43
2019-01-23T03:36:05.541Z,36.35
2019-01-23T03:37:05.727Z,36.38
2019-01-23T03:38:05.670Z,36.41
2019-01-23T03:39:05.725Z,36.27
2019-01-23T03:40:05.544Z,36.41
2019-01-23T03:41:05.665Z,36.35
2019-01-23T03:42:05.416Z,36.47
2019-01-23T03:43:05.712Z,36.38
2019-01-23T03:44:05.589Z,36.42
2019-01-23T03:45:05.518Z,36.31
2019-01-23T03:46:05.416Z,36.41
2019-01-23T03:47:05.595Z,36.41
2019-01-23T03:48:05.477Z,36.38
2019-01-23T03:49:05.275Z,36.37
2019-01-23T03:50:05.416Z,36.37
2019-01-23T03:51:05.667Z,36.4
2019-01-23T03:52:05.313Z,36.42
2019-01-23T03:53:05.969Z,36.38
2019-01-23T03:54:05.499Z,36.4
2019-01-23T03:55:05.486Z,36.37
2019-01-23T03:56:05.403Z,36.41
2019-01-23T03:57:05.996Z,36.43
2019-01-23T03:58:05.340Z,36.35
2019-01-23T03:59:05.408Z,36.34
2019-01-23T04:00:05.524Z,36.36
2019-01-23T04:01:05.265Z,36.4
2019-01-23T04:02:05.996Z,36.41
2019-01-23T04:03:05.846Z,36.39
2019-01-23T04:04:05.315Z,36.36
2019-01-23T04:05:07.214Z,36.32
2019-01-23T04:06:06.158Z,36.41
2019-01-23T04:07:10.952Z,36.35
2019-01-23T04:08:05.869Z,36.42
2019-01-23T04:09:05.768Z,36.39
2019-01-23T04:10:07.175Z,36.36
2019-01-23T04:11:07.223Z,36.38
2019-01-23T04:12:05.512Z,36.41
2019-01-23T04:13:05.908Z,36.42
2019-01-23T04:14:05.225Z,36.39
2019-01-23T04:15:05.699Z,36.33
2019-01-23T04:16:05.702Z,36.38
2019-01-23T04:17:06.019Z,36.38
2019-01-23T04:18:05.927Z,36.31
2019-01-23T04:19:05.568Z,36.36
2019-01-23T04:20:05.305Z,36.41
2019-01-23T04:21:05.755Z,36.38
2019-01-23T04:22:05.511Z,36.42
2019-01-23T04:23:05.648Z,36.42
2019-01-23T04:24:05.448Z,36.38
2019-01-23T04:25:05.728Z,36.38
2019-01-23T04:26:05.414Z,36.36
2019-01-23T04:27:07.134Z,36.38
2019-01-23T04:28:05.295Z,36.39
2019-01-23T04:29:05.574Z,36.38
2019-01-23T04:30:05.519Z,36.42
2019-01-23T04:31:05.304Z,36.38
2019-01-23T04:32:05.428Z,36.41
2019-01-23T04:33:06.166Z,36.36
2019-01-23T04:34:05.317Z,36.33
2019-01-23T04:35:05.377Z,36.42
2019-01-23T04:36:06.154Z,36.42
2019-01-23T04:37:05.237Z,36.39
2019-01-23T04:38:05.653Z,36.4
2019-01-23T04:39:05.501Z,36.43
2019-01-23T04:40:05.563Z,36.4
2019-01-23T04:41:05.350Z,36.43
2019-01-23T04:42:05.390Z,36.38
2019-01-23T04:43:05.244Z,36.31
2019-01-23T04:44:07.848Z,36.34
2019-01-23T04:45:05.426Z,36.35
2019-01-23T04:46:05.317Z,36.36
2019-01-23T04:47:05.187Z,36.31
2019-01-23T04:48:05.502Z,36.34
2019-01-23T04:49:05.323Z,36.31
2019-01-23T04:50:05.221Z,36.36
2019-01-23T04:51:05.323Z,36.33
2019-01-23T04:52:05.193Z,36.3
2019-01-23T04:53:05.417Z,36.29
2019-01-23T04:54:06.449Z,36.38
2019-01-23T04:55:05.285Z,36.32
2019-01-23T04:56:05.271Z,36.35
2019-01-23T04:57:05.412Z,36.28
2019-01-23T04:58:05.367Z,36.32
2019-01-23T04:59:05.376Z,36.24
2019-01-23T05:00:05.849Z,36.23
2019-01-23T05:01:05.456Z,36.2
2019-01-23T05:02:05.621Z,36.15
2019-01-23T05:03:05.477Z,36.16
2019-01-23T05:04:05.206Z,36.16
2019-01-23T05:05:05.573Z,36.13
2019-01-23T05:06:05.746Z,36.19
2019-01-23T05:07:05.451Z,36.23
2019-01-23T05:08:05.508Z,36.23
2019-01-23T05:09:05.607Z,36.26
2019-01-23T05:10:05.202Z,36.39
2019-01-23T05:11:05.579Z,35.94
2019-01-23T05:12:05.662Z,35.99
2019-01-23T05:13:05.192Z,35.96
2019-01-23T05:14:05.511Z,36
2019-01-23T05:15:05.856Z,36.04
2019-01-23T05:16:05.366Z,36.17
2019-01-23T05:17:05.346Z,36.13
2019-01-23T05:18:05.434Z,36.24
2019-01-23T05:19:05.180Z,36.25
2019-01-23T05:20:05.337Z,36.29
2019-01-23T05:21:05.684Z,36.3
2019-01-23T05:22:05.267Z,36.16
2019-01-23T05:23:05.378Z,36.28
2019-01-23T05:24:05.436Z,36.23
2019-01-23T05:25:08.632Z,36.23
2019-01-23T05:26:05.247Z,36.27
2019-01-23T05:27:05.718Z,36.23
2019-01-23T05:28:05.600Z,36.3
2019-01-23T05:29:05.632Z,36.25
2019-01-23T05:30:05.830Z,36.33
2019-01-23T05:31:05.209Z,36.29
2019-01-23T05:32:05.362Z,36.26
2019-01-23T05:33:05.705Z,36.28
2019-01-23T05:34:05.411Z,36.15
2019-01-23T05:35:05.228Z,36.21
2019-01-23T05:36:05.367Z,36.19
2019-01-23T05:37:05.497Z,36.14
2019-01-23T05:38:05.330Z,36.12
2019-01-23T05:39:05.956Z,36.15
2019-01-23T05:40:05.426Z,36.13
2019-01-23T05:41:07.198Z,36.13
2019-01-23T05:42:05.907Z,36.07
2019-01-23T05:43:05.810Z,36.04
2019-01-23T05:44:05.140Z,36.04
2019-01-23T05:45:05.395Z,36.09
2019-01-23T05:46:05.870Z,36.1
2019-01-23T05:47:05.725Z,35.99
2019-01-23T05:48:05.423Z,36.07
2019-01-23T05:49:05.254Z,36.11
2019-01-23T05:50:05.455Z,36.1
2019-01-23T05:51:05.370Z,36.01
2019-01-23T05:52:05.364Z,36.05
2019-01-23T05:53:05.356Z,36.06
2019-01-23T05:54:05.699Z,36.12
2019-01-23T05:55:05.436Z,36.11
2019-01-23T05:57:05.809Z,36.04
2019-01-23T05:58:05.754Z,36.08
2019-01-23T05:59:05.172Z,35.98
2019-01-23T06:00:05.252Z,35.99
2019-01-23T06:01:06.350Z,36.07
2019-01-23T06:02:05.212Z,36.05
2019-01-23T06:03:05.375Z,36.05
2019-01-23T06:04:05.439Z,36.01
2019-01-23T06:06:05.618Z,36.04
2019-01-23T06:08:05.377Z,35.98
2019-01-23T06:09:05.705Z,35.97
2019-01-23T06:10:05.653Z,35.99
2019-01-23T06:11:05.122Z,35.98
2019-01-23T06:12:07.199Z,35.96
2019-01-23T06:13:06.026Z,35.96
2019-01-23T06:14:05.797Z,35.97
2019-01-23T06:15:06.556Z,35.92
2019-01-23T06:16:05.374Z,35.97
2019-01-23T06:17:05.864Z,35.95
2019-01-23T06:18:05.784Z,35.93
2019-01-23T06:19:05.744Z,35.94
2019-01-23T06:20:05.935Z,35.92
2019-01-23T06:21:05.864Z,35.88
2019-01-23T06:22:05.231Z,35.89
2019-01-23T06:23:05.367Z,35.96
2019-01-23T06:24:05.334Z,35.94
2019-01-23T06:25:05.927Z,35.9
2019-01-23T06:26:05.696Z,35.84
2019-01-23T06:27:05.433Z,35.92
2019-01-23T06:28:05.744Z,35.94
2019-01-23T06:29:05.563Z,35.9
2019-01-23T06:30:10.638Z,35.88
2019-01-23T06:31:05.290Z,35.88
2019-01-23T06:32:05.758Z,35.88
2019-01-23T06:33:05.630Z,35.84
2019-01-23T06:34:05.442Z,35.91
2019-01-23T06:35:05.309Z,35.89
2019-01-23T06:36:05.630Z,35.84
2019-01-23T06:37:05.113Z,35.83
2019-01-23T06:38:05.724Z,35.81
2019-01-23T06:39:05.273Z,35.81
2019-01-23T06:40:05.361Z,35.82
2019-01-23T06:41:05.593Z,35.8
2019-01-23T06:42:05.642Z,35.79
2019-01-23T06:43:05.852Z,35.8
2019-01-23T06:44:05.206Z,35.77
2019-01-23T06:45:05.438Z,35.84
2019-01-23T06:46:05.340Z,35.74
2019-01-23T06:47:05.437Z,35.79
2019-01-23T06:48:05.377Z,35.8
2019-01-23T06:49:05.768Z,35.8
2019-01-23T06:50:05.518Z,35.79
2019-01-23T06:51:05.380Z,35.78
2019-01-23T06:52:05.406Z,35.7
2019-01-23T06:53:06.075Z,35.74
2019-01-23T06:54:05.520Z,35.79
2019-01-23T06:55:05.815Z,35.75
2019-01-23T06:56:05.387Z,35.72
2019-01-23T06:57:05.751Z,35.73
2019-01-23T06:58:05.644Z,35.73
2019-01-23T06:59:05.433Z,35.73
2019-01-23T07:00:05.371Z,35.72
2019-01-23T07:01:05.569Z,35.69
2019-01-23T07:02:05.404Z,35.71
2019-01-23T07:03:05.401Z,35.68
2019-01-23T07:04:05.316Z,35.73
2019-01-23T07:05:05.492Z,35.7
2019-01-23T07:06:05.523Z,35.73
2019-01-23T07:07:06.722Z,35.57
2019-01-23T07:08:15.566Z,40.46
2019-01-23T07:09:15.516Z,48.5
2019-01-23T07:10:15.498Z,37.29
2019-01-23T07:11:15.340Z,41.21
2019-01-23T07:12:15.551Z,37.61
2019-01-23T07:13:15.341Z,35.65
2019-01-23T07:14:15.613Z,35.58
2019-01-23T07:15:15.143Z,35.22
2019-01-23T07:16:15.288Z,35.03
2019-01-23T07:17:15.292Z,35
2019-01-23T07:18:15.653Z,34.87
2019-01-23T07:19:15.306Z,34.78
2019-01-23T07:20:15.567Z,34.74
2019-01-23T07:21:15.755Z,34.73
2019-01-23T07:22:15.199Z,34.81
2019-01-23T07:23:15.563Z,34.76
2019-01-23T07:24:15.684Z,34.78
2019-01-23T07:25:15.684Z,34.75
2019-01-23T07:26:15.699Z,34.78
2019-01-23T07:27:15.359Z,34.77
2019-01-23T07:28:15.525Z,35.06
2019-01-23T07:29:15.403Z,34.79
2019-01-23T07:30:15.444Z,34.78
2019-01-23T07:31:17.088Z,34.79
2019-01-23T07:32:15.666Z,34.75
2019-01-23T07:33:15.639Z,35.31
2019-01-23T07:34:15.911Z,34.84
2019-01-23T07:35:15.668Z,34.88
2019-01-23T07:36:15.891Z,34.86
2019-01-23T07:37:15.773Z,34.81
2019-01-23T07:38:15.415Z,34.76
2019-01-23T07:39:15.651Z,34.9
2019-01-23T07:40:15.710Z,34.83
2019-01-23T07:41:15.348Z,34.68
2019-01-23T07:42:15.528Z,34.73
2019-01-23T07:43:15.792Z,34.79
2019-01-23T07:44:15.626Z,34.83
2019-01-23T07:45:15.662Z,34.9
2019-01-23T07:46:15.390Z,34.97
2019-01-23T07:47:15.559Z,34.99
2019-01-23T07:48:17.156Z,34.95
2019-01-23T07:49:15.365Z,34.99
2019-01-23T07:50:15.683Z,34.93
2019-01-23T07:51:15.257Z,34.9
2019-01-23T07:52:15.655Z,34.95
2019-01-23T07:53:15.343Z,34.97
2019-01-23T07:54:16.293Z,34.97
2019-01-23T07:55:15.403Z,34.91
2019-01-23T07:56:15.255Z,34.97
2019-01-23T07:57:15.255Z,34.94
2019-01-23T07:58:15.797Z,34.92
2019-01-23T07:59:15.148Z,34.87
2019-01-23T08:00:15.867Z,34.9
2019-01-23T08:01:15.412Z,35.37
2019-01-23T08:02:15.744Z,35.01
2019-01-23T08:03:15.288Z,34.86
2019-01-23T08:04:16.970Z,34.79
2019-01-23T08:05:19.797Z,34.71
2019-01-23T08:06:15.475Z,34.63
2019-01-23T08:07:15.457Z,34.64
2019-01-23T08:08:15.480Z,34.61
2019-01-23T08:09:15.623Z,34.59
2019-01-23T08:10:15.917Z,34.59
2019-01-23T08:11:15.639Z,34.58
2019-01-23T08:12:15.794Z,34.54
2019-01-23T08:13:15.416Z,34.55
2019-01-23T08:14:15.226Z,34.52
2019-01-23T08:15:15.543Z,34.57
2019-01-23T08:16:15.320Z,34.65
2019-01-23T08:17:15.525Z,34.54
2019-01-23T08:18:15.882Z,34.52
2019-01-23T08:19:15.373Z,34.49
2019-01-23T08:20:15.312Z,34.52
2019-01-23T08:21:15.812Z,34.48
2019-01-23T08:22:15.393Z,34.5
2019-01-23T08:23:15.665Z,34.56
2019-01-23T08:24:15.320Z,34.47
2019-01-23T08:25:15.619Z,34.51
2019-01-23T08:26:15.589Z,34.46
2019-01-23T08:27:15.419Z,34.46
2019-01-23T08:28:15.142Z,34.46
2019-01-23T08:29:15.238Z,34.49
2019-01-23T08:30:15.466Z,34.51
2019-01-23T08:31:15.255Z,34.66
2019-01-23T08:32:15.478Z,34.5
2019-01-23T08:33:15.573Z,34.59
2019-01-23T08:34:15.726Z,34.63
2019-01-23T08:35:15.702Z,34.5
2019-01-23T08:36:17.218Z,34.7
2019-01-23T08:37:16.604Z,35.69
2019-01-23T08:38:15.299Z,34.56
2019-01-23T08:39:15.278Z,34.43
2019-01-23T08:40:15.653Z,34.42
2019-01-23T08:41:15.238Z,34.5
2019-01-23T08:42:15.748Z,34.56
2019-01-23T08:43:15.685Z,34.59
2019-01-23T08:44:15.445Z,34.65
2019-01-23T08:45:15.365Z,34.65
2019-01-23T08:46:15.559Z,34.63
2019-01-23T08:47:15.260Z,35.01
2019-01-23T08:48:15.273Z,34.98
2019-01-23T08:49:15.599Z,34.71
2019-01-23T08:50:15.223Z,34.76
2019-01-23T08:51:15.385Z,34.53
2019-01-23T08:52:15.620Z,34.57
2019-01-23T08:53:15.379Z,34.54
2019-01-23T08:54:15.409Z,35.98
2019-01-23T08:55:15.315Z,34.63
2019-01-23T08:56:15.643Z,34.56
2019-01-23T08:57:15.330Z,34.52
2019-01-23T08:58:15.400Z,34.57
2019-01-23T08:59:15.329Z,34.4
2019-01-23T09:00:15.285Z,34.37
2019-01-23T09:01:15.691Z,34.42
2019-01-23T09:02:15.128Z,34.39
2019-01-23T09:03:15.243Z,34.37
2019-01-23T09:04:15.291Z,34.37
2019-01-23T09:05:15.716Z,34.3
2019-01-23T09:06:15.610Z,34.41
2019-01-23T09:07:17.975Z,34.37
2019-01-23T09:08:15.723Z,35.25
2019-01-23T09:09:16.004Z,34.39
2019-01-23T09:10:15.669Z,34.42
2019-01-23T09:11:15.646Z,34.43
2019-01-23T09:12:16.794Z,34.47
2019-01-23T09:13:15.711Z,34.58
2019-01-23T09:14:15.251Z,34.56
2019-01-23T09:15:15.590Z,34.48
2019-01-23T09:16:15.895Z,34.52
2019-01-23T09:17:15.722Z,34.54
2019-01-23T09:18:15.575Z,34.53
2019-01-23T09:19:18.181Z,34.49
2019-01-23T09:20:15.616Z,34.55
2019-01-23T09:21:15.921Z,34.54
2019-01-23T09:22:15.289Z,34.58
2019-01-23T09:23:15.364Z,34.54
2019-01-23T09:24:15.777Z,34.55
2019-01-23T09:25:15.676Z,34.55
2019-01-23T09:26:16.170Z,34.55
2019-01-23T09:27:15.467Z,34.56
2019-01-23T09:28:15.228Z,34.56
2019-01-23T09:29:15.335Z,34.55
2019-01-23T09:30:16.302Z,34.6
2019-01-23T09:31:15.149Z,34.88
2019-01-23T09:32:15.330Z,32.93
2019-01-23T09:33:15.384Z,33.8
2019-01-23T09:34:15.813Z,33.92
2019-01-23T09:35:15.307Z,33.94
2019-01-23T09:36:15.740Z,33.62
2019-01-23T09:37:15.549Z,33.89
2019-01-23T09:38:15.509Z,33.72
2019-01-23T09:39:16.279Z,33.62
2019-01-23T09:40:15.382Z,33.65
2019-01-23T09:41:15.475Z,33.58
2019-01-23T09:42:15.976Z,33.73
2019-01-23T09:43:15.102Z,33.89
2019-01-23T09:44:15.290Z,33.86
2019-01-23T09:45:15.337Z,33.92
2019-01-23T09:46:15.418Z,34
2019-01-23T09:47:15.504Z,33.98
2019-01-23T09:48:15.203Z,34.04
2019-01-23T09:49:15.421Z,33.98
2019-01-23T09:50:16.319Z,34
2019-01-23T09:51:15.248Z,33.92
2019-01-23T09:52:16.677Z,33.89
2019-01-23T09:53:15.568Z,33.77
2019-01-23T09:54:15.228Z,33.95
2019-01-23T09:55:15.647Z,34.41
2019-01-23T09:56:16.186Z,34.16
2019-01-23T09:57:15.272Z,34.04
2019-01-23T09:58:22.231Z,34.56
2019-01-23T09:59:22.824Z,34.17
2019-01-23T10:00:22.409Z,34.11
2019-01-23T10:01:22.846Z,34.18
2019-01-23T10:02:24.135Z,34.32
2019-01-23T10:03:23.353Z,34.37
2019-01-23T10:04:22.689Z,34.45
2019-01-23T10:05:23.101Z,34.56
2019-01-23T10:06:22.584Z,34.56
2019-01-23T10:07:22.462Z,34.54
2019-01-23T10:08:22.750Z,34.81
2019-01-23T10:09:23.011Z,34.72
2019-01-23T10:10:22.966Z,34.86
2019-01-23T10:11:24.380Z,34.84
2019-01-23T10:12:23.702Z,34.92
2019-01-23T10:13:22.353Z,34.95
2019-01-23T10:14:22.836Z,35.06
2019-01-23T10:15:23.373Z,35.07
2019-01-23T10:16:22.695Z,35.13
2019-01-23T10:17:22.786Z,34.97
2019-01-23T10:18:22.292Z,35.05
2019-01-23T10:19:22.291Z,35.11
2019-01-23T10:20:22.568Z,35.16
2019-01-23T10:21:22.186Z,35.1
2019-01-23T10:22:22.426Z,35.18
2019-01-23T10:23:22.683Z,35.03
2019-01-23T10:24:22.227Z,35.13
2019-01-23T10:25:23.064Z,35.14
2019-01-23T10:26:22.217Z,35.16
2019-01-23T10:27:22.669Z,35.18
2019-01-23T10:28:22.392Z,35.2
2019-01-23T10:29:22.565Z,35.17
2019-01-23T10:30:22.349Z,35.17
2019-01-23T10:31:22.375Z,35.12
2019-01-23T10:32:22.891Z,35.14
2019-01-23T10:33:22.290Z,35.15
2019-01-23T10:34:22.242Z,35.18
2019-01-23T10:35:22.604Z,35.13
2019-01-23T10:36:22.632Z,35.23
2019-01-23T10:37:22.306Z,35.21
2019-01-23T10:38:22.426Z,35.17
2019-01-23T10:39:22.628Z,35.24
2019-01-23T10:40:22.545Z,35.28
2019-01-23T10:41:22.741Z,35.21
2019-01-23T10:42:22.480Z,35.21
2019-01-23T10:43:22.399Z,35.23
2019-01-23T10:44:22.671Z,35.21
2019-01-23T10:45:22.477Z,35.11
2019-01-23T10:46:22.384Z,35.11
2019-01-23T10:47:22.626Z,35.19
2019-01-23T10:48:22.608Z,35.22
2019-01-23T10:49:24.271Z,35.13
2019-01-23T10:50:22.386Z,35.13
2019-01-23T10:51:22.628Z,35.17
2019-01-23T10:52:22.662Z,35.23
2019-01-23T10:53:22.818Z,35.17
2019-01-23T10:54:22.341Z,35.19
2019-01-23T10:55:22.535Z,35.23
2019-01-23T10:56:22.637Z,35.17
2019-01-23T10:57:23.282Z,35.19
2019-01-23T10:58:22.402Z,35.11
2019-01-23T10:59:22.584Z,35.03
2019-01-23T11:00:22.191Z,35.1
2019-01-23T11:01:22.374Z,35.14
2019-01-23T11:02:22.905Z,35.22
2019-01-23T11:03:24.113Z,35.14
2019-01-23T11:04:23.225Z,35.15
2019-01-23T11:05:22.792Z,35.13
2019-01-23T11:06:22.454Z,35.22
2019-01-23T11:07:22.343Z,35.15
2019-01-23T11:08:24.339Z,35.07
2019-01-23T11:09:22.924Z,35.12
2019-01-23T11:10:22.398Z,35.16
2019-01-23T11:11:22.753Z,35.2
2019-01-23T11:12:22.262Z,35.17
2019-01-23T11:13:22.284Z,35.09
2019-01-23T11:14:22.993Z,35.11
2019-01-23T11:15:22.607Z,35.11
2019-01-23T11:16:24.088Z,35.19
2019-01-23T11:17:22.867Z,35.17
2019-01-23T11:18:22.707Z,35.15
2019-01-23T11:19:22.722Z,35.12
2019-01-23T11:20:22.729Z,35.12
2019-01-23T11:21:22.632Z,35.08
2019-01-23T11:22:22.646Z,35.04
2019-01-23T11:23:22.186Z,35.16
2019-01-23T11:24:22.980Z,35.19
2019-01-23T11:25:22.424Z,35.12
2019-01-23T11:26:22.660Z,35.16
2019-01-23T11:27:24.287Z,35.1
2019-01-23T11:28:22.542Z,35.08
2019-01-23T11:29:22.589Z,35.09
2019-01-23T11:30:22.626Z,35.07
2019-01-23T11:31:22.155Z,35.07
2019-01-23T11:32:22.920Z,35.08
2019-01-23T11:33:22.595Z,34.96
2019-01-23T11:34:22.286Z,35.05
2019-01-23T11:35:22.649Z,35.04
2019-01-23T11:36:22.293Z,35.02
2019-01-23T11:37:22.249Z,35.15
2019-01-23T11:38:22.329Z,35.11
2019-01-23T11:39:22.765Z,35
2019-01-23T11:40:22.879Z,35.04
2019-01-23T11:41:23.034Z,35.06
2019-01-23T11:42:22.285Z,35.01
2019-01-23T11:43:22.214Z,35.06
2019-01-23T11:44:23.510Z,34.97
2019-01-23T11:45:22.989Z,35.54
2019-01-23T11:46:22.805Z,35
2019-01-23T11:47:22.445Z,35.2
2019-01-23T11:48:22.511Z,35.04
2019-01-23T11:49:23.671Z,34.41
2019-01-23T11:50:23.309Z,34.39
2019-01-23T11:51:22.479Z,34.08
2019-01-23T11:52:22.964Z,34.24
2019-01-23T11:53:22.539Z,33.85
2019-01-23T11:54:22.300Z,33.8
2019-01-23T11:55:22.306Z,34.55
2019-01-23T11:56:22.359Z,33.6
2019-01-23T11:57:22.308Z,33.87
2019-01-23T11:58:22.491Z,34.16
2019-01-23T11:59:22.728Z,34.32
2019-01-23T12:00:22.988Z,34.44
2019-01-23T12:01:27.909Z,34.59
2019-01-23T12:02:22.507Z,34.63
2019-01-23T12:03:22.189Z,34.66
2019-01-23T12:04:22.273Z,34.66
2019-01-23T12:05:22.870Z,34.65
2019-01-23T12:06:24.829Z,34.83
2019-01-23T12:07:22.584Z,34.87
2019-01-23T12:08:22.971Z,34.88
2019-01-23T12:09:23.006Z,34.81
2019-01-23T12:10:22.879Z,34.92
2019-01-23T12:11:22.612Z,34.95
2019-01-23T12:12:22.744Z,34.92
2019-01-23T12:13:22.213Z,34.93
2019-01-23T12:14:22.659Z,34.96
2019-01-23T12:15:22.701Z,35
2019-01-23T12:16:22.860Z,34.98
2019-01-23T12:17:22.293Z,34.99
2019-01-23T12:18:22.640Z,34.99
2019-01-23T12:19:22.683Z,35.03
2019-01-23T12:20:22.208Z,35.07
2019-01-23T12:21:22.323Z,34.98
2019-01-23T12:22:22.455Z,35.05
2019-01-23T12:23:22.276Z,35.11
2019-01-23T12:24:22.572Z,35.08
2019-01-23T12:25:22.248Z,35.14
2019-01-23T12:26:22.166Z,34.99
2019-01-23T12:27:22.591Z,34.87
2019-01-23T12:28:22.721Z,34.92
2019-01-23T12:29:22.557Z,34.92
2019-01-23T12:30:22.274Z,34.96
2019-01-23T12:31:22.242Z,34.96
2019-01-23T12:32:22.714Z,34.89
2019-01-23T12:33:22.236Z,34.83
2019-01-23T12:34:22.232Z,34.92
2019-01-23T12:35:22.677Z,34.91
2019-01-23T12:36:22.678Z,34.94
2019-01-23T12:37:22.576Z,34.79
2019-01-23T12:38:22.739Z,34.9
2019-01-23T12:39:22.227Z,34.88
2019-01-23T12:40:22.190Z,34.89
2019-01-23T12:41:22.295Z,34.99
2019-01-23T12:42:22.752Z,34.89
2019-01-23T12:43:22.519Z,34.81
2019-01-23T12:44:22.827Z,34.93
2019-01-23T12:45:22.632Z,34.88
2019-01-23T12:46:22.405Z,34.84
2019-01-23T12:47:22.635Z,34.89
2019-01-23T12:48:22.308Z,34.93
2019-01-23T12:49:22.553Z,34.86
2019-01-23T12:50:22.354Z,34.89
2019-01-23T12:51:22.548Z,34.89
2019-01-23T12:52:22.369Z,34.79
2019-01-23T12:53:24.169Z,34.88
2019-01-23T12:54:22.580Z,34.87
2019-01-23T12:55:22.630Z,34.86
2019-01-23T12:56:22.368Z,34.93
2019-01-23T12:57:22.617Z,34.91
2019-01-23T12:58:22.526Z,34.85